Time;durP1;ratioP1;P1;durP2;ratioP2;P2;SDS_P1;SDS_P2;PMS_P1;PMS_P2;Temp;Humidity;BMP_temperature;BMP_pressure;BME280_temperature;BME280_humidity;BME280_pressure;Samples;Min_cycle;Max_cycle;Signal;HPM_P1;HPM_P2
2022/02/03 00:00:38;;;;;;;16.23;12.00;;;;;;;8.36;88.22;100106.25;5065410;28;20048;-72
2022/02/03 00:03:58;;;;;;;14.32;11.50;;;;;;;8.36;88.71;100111.50;5065934;28;20032;-72
2022/02/03 00:05:58;;;;;;;16.27;12.18;;;;;;;8.36;88.21;100105.41;5039918;28;20049;-71
2022/02/03 00:22:07;;;;;;;14.02;10.57;;;;;;;8.36;88.93;100098.38;5044188;28;20091;-72
2022/02/03 00:25:29;;;;;;;12.88;8.80;;;;;;;8.35;88.39;100104.56;5039441;28;20171;-73
2022/02/03 00:30:31;;;;;;;10.68;8.07;;;;;;;8.37;88.65;100107.13;5064873;28;20041;-71
2022/02/03 00:49:02;;;;;;;12.45;9.05;;;;;;;8.56;87.51;100102.09;5049342;28;20060;-72
2022/02/03 00:51:29;;;;;;;10.68;9.00;;;;;;;8.53;86.93;100104.84;5047718;28;20036;-72
2022/02/03 00:53:56;;;;;;;9.73;8.60;;;;;;;8.55;87.34;100097.78;5048436;28;20036;-71
2022/02/03 00:56:25;;;;;;;10.98;8.35;;;;;;;8.53;87.31;100097.81;5047689;28;20052;-72
2022/02/03 00:58:57;;;;;;;13.27;10.30;;;;;;;8.50;87.57;100095.31;5048432;28;20033;-71
2022/02/03 01:01:28;;;;;;;14.80;12.52;;;;;;;8.46;87.20;100088.44;5048783;28;20061;-71
2022/02/03 01:03:55;;;;;;;15.98;11.85;;;;;;;8.47;87.67;100089.31;5049064;28;20127;-71
2022/02/03 01:06:26;;;;;;;14.68;10.50;;;;;;;8.47;87.75;100084.06;5048086;28;20032;-71
2022/02/03 01:08:55;;;;;;;12.52;9.40;;;;;;;8.47;87.61;100076.19;5048607;28;20430;-71
2022/02/03 01:11:28;;;;;;;13.80;11.05;;;;;;;8.47;87.49;100070.91;5048850;28;20044;-71
2022/02/03 01:14:06;;;;;;;13.85;11.45;;;;;;;8.48;87.86;100080.50;5048481;28;20115;-71
2022/02/03 01:16:51;;;;;;;14.90;12.38;;;;;;;8.44;88.03;100078.88;5047329;28;20055;-71
2022/02/03 01:45:58;;;;;;;14.88;11.93;;;;;;;8.36;87.64;100093.13;5067332;28;20111;-71
2022/02/03 01:53:46;;;;;;;19.73;16.08;;;;;;;8.36;86.64;100081.75;5047307;28;20509;-70
2022/02/03 01:56:22;;;;;;;17.98;13.90;;;;;;;8.32;86.39;100073.16;5047503;28;20036;-70
2022/02/03 01:58:47;;;;;;;19.42;14.52;;;;;;;8.27;86.75;100072.44;5049160;28;20038;-70
2022/02/03 02:01:23;;;;;;;21.92;15.63;;;;;;;8.31;87.29;100066.16;5023409;28;20041;-71
2022/02/03 02:04:12;;;;;;;25.23;17.67;;;;;;;8.25;87.25;100053.25;5047645;28;20037;-71
2022/02/03 02:06:56;;;;;;;20.17;16.98;;;;;;;8.22;87.25;100052.50;5045915;28;20075;-71
2022/02/03 02:09:37;;;;;;;19.10;15.95;;;;;;;8.21;87.73;100048.16;5046218;28;20045;-71
2022/02/03 02:12:24;;;;;;;21.15;15.93;;;;;;;8.18;87.13;100055.22;5062616;28;20036;-71
2022/02/03 02:37:38;;;;;;;15.27;9.27;;;;;;;7.83;86.51;100039.84;5047374;28;20045;-72
2022/02/03 02:42:39;;;;;;;10.80;7.95;;;;;;;7.76;86.83;100022.59;5047380;28;20061;-72
2022/02/03 02:45:12;;;;;;;14.18;9.25;;;;;;;7.72;86.59;100021.81;5046736;28;20461;-71
2022/02/03 02:47:49;;;;;;;13.18;7.85;;;;;;;7.70;86.51;100018.38;5047682;28;20033;-72
2022/02/03 02:50:29;;;;;;;13.73;8.80;;;;;;;7.71;86.67;100020.13;5047776;28;20457;-71
2022/02/03 03:34:53;;;;;;;22.20;14.23;;;;;;;7.61;87.54;99974.13;5050367;28;20041;-70
2022/02/03 03:37:30;;;;;;;20.23;14.43;;;;;;;7.61;87.61;99961.00;5054941;28;20282;-71
2022/02/03 03:40:01;;;;;;;15.10;12.95;;;;;;;7.64;87.95;99966.97;5050488;28;21410;-71
2022/02/03 03:42:35;;;;;;;15.52;11.77;;;;;;;7.67;87.74;99952.91;5057578;28;20358;-70
2022/02/03 03:45:05;;;;;;;18.42;13.70;;;;;;;7.68;88.15;99942.38;5065971;28;20036;-70
2022/02/03 03:47:33;;;;;;;16.95;12.45;;;;;;;7.69;88.12;99941.44;5083498;28;20032;-70
2022/02/03 03:50:04;;;;;;;22.58;15.05;;;;;;;7.72;88.08;99932.59;5079682;28;20033;-70
2022/02/03 03:52:32;;;;;;;18.55;13.25;;;;;;;7.73;87.48;99940.44;5070620;28;20032;-71
2022/02/03 03:55:12;;;;;;;16.25;13.35;;;;;;;7.77;87.96;99935.06;5069632;28;20086;-70
2022/02/03 05:04:36;;;;;;;14.93;7.22;;;;;;;7.67;86.34;99855.81;5068729;28;20501;-71
2022/02/03 05:07:46;;;;;;;9.93;8.15;;;;;;;7.70;86.51;99860.94;5067621;28;20106;-71
2022/02/03 05:11:01;;;;;;;13.23;8.13;;;;;;;7.67;86.80;99874.19;5069472;28;20569;-72
2022/02/03 05:14:41;;;;;;;11.82;7.82;;;;;;;7.67;86.69;99866.31;5068019;28;20041;-73
2022/02/03 05:17:24;;;;;;;11.95;7.70;;;;;;;7.66;86.75;99860.22;5066609;28;20561;-70
2022/02/03 05:20:43;;;;;;;8.88;7.28;;;;;;;7.69;87.19;99854.00;5066692;28;20562;-71
2022/02/03 05:24:02;;;;;;;11.52;8.18;;;;;;;7.72;86.72;99851.25;5066474;28;20044;-71
2022/02/03 05:45:07;;;;;;;12.30;7.72;;;;;;;7.57;86.55;99831.69;5067676;28;20159;-70
2022/02/03 05:50:30;;;;;;;10.60;7.57;;;;;;;7.55;86.89;99827.41;5067640;28;19923;-70
2022/02/03 06:04:15;;;;;;;10.38;7.60;;;;;;;7.49;84.92;99836.34;5047854;28;20118;-72
2022/02/03 06:29:09;;;;;;;10.90;7.47;;;;;;;7.46;85.87;99797.13;5041281;28;20532;-71
2022/02/03 06:31:43;;;;;;;12.80;7.88;;;;;;;7.49;85.50;99789.13;5046002;28;20544;-71
2022/02/03 06:34:09;;;;;;;13.55;7.82;;;;;;;7.45;85.06;99783.13;5060673;28;20462;-71
2022/02/03 06:36:39;;;;;;;9.20;6.28;;;;;;;7.45;85.10;99790.16;5066965;28;20056;-71
2022/02/03 06:39:27;;;;;;;9.57;7.32;;;;;;;7.48;85.44;99784.78;5064204;28;20037;-71
2022/02/03 06:41:56;;;;;;;9.98;7.60;;;;;;;7.45;85.42;99782.28;5057100;28;20033;-72
2022/02/03 06:44:28;;;;;;;11.90;8.10;;;;;;;7.42;85.04;99771.91;5053299;28;20025;-70
2022/02/03 06:46:57;;;;;;;11.68;8.90;;;;;;;7.37;85.66;99774.69;5056688;28;20029;-72
2022/02/03 06:52:14;;;;;;;12.00;8.55;;;;;;;7.32;86.23;99766.16;5052182;28;20620;-71
2022/02/03 06:57:14;;;;;;;10.88;7.18;;;;;;;7.35;85.99;99763.41;5056064;28;20029;-72
2022/02/03 06:59:50;;;;;;;12.45;9.95;;;;;;;7.36;86.70;99762.50;5050030;28;20421;-72
2022/02/03 07:02:15;;;;;;;12.38;8.98;;;;;;;7.38;86.73;99762.44;5054539;28;20508;-72
2022/02/03 07:04:44;;;;;;;15.15;10.45;;;;;;;7.36;86.66;99764.25;5050905;28;20033;-72
2022/02/03 07:07:15;;;;;;;11.32;9.02;;;;;;;7.28;86.58;99754.03;5055127;28;20024;-71
2022/02/03 07:09:40;;;;;;;13.32;9.07;;;;;;;7.28;86.08;99749.66;5071118;28;20044;-70
2022/02/03 07:12:07;;;;;;;10.93;9.18;;;;;;;7.31;86.08;99748.72;5071580;28;20040;-71
2022/02/03 07:14:34;;;;;;;13.18;10.00;;;;;;;7.28;86.24;99736.53;5071196;28;20467;-71
2022/02/03 07:17:01;;;;;;;15.05;10.07;;;;;;;7.29;85.78;99747.91;5070540;28;20028;-71
2022/02/03 07:19:27;;;;;;;13.70;10.55;;;;;;;7.32;85.80;99763.53;5060949;28;20106;-72
2022/02/03 07:21:53;;;;;;;11.85;9.82;;;;;;;7.36;85.91;99752.03;5050622;28;20029;-71
2022/02/03 07:24:18;;;;;;;13.65;10.80;;;;;;;7.38;85.64;99739.69;5056528;28;20041;-70
2022/02/03 07:26:43;;;;;;;13.82;10.57;;;;;;;7.36;85.69;99749.41;5071960;28;20035;-72
2022/02/03 07:29:10;;;;;;;17.35;11.25;;;;;;;7.38;85.19;99770.31;5055941;28;20095;-72
2022/02/03 07:31:36;;;;;;;14.32;10.73;;;;;;;7.38;85.44;99773.78;5055779;28;20400;-71
2022/02/03 07:34:08;;;;;;;17.00;11.82;;;;;;;7.37;85.58;99766.84;5071257;28;20040;-71
2022/02/03 07:36:34;;;;;;;18.13;14.43;;;;;;;7.37;85.55;99748.47;5069762;28;20024;-70
2022/02/03 07:39:01;;;;;;;16.25;13.25;;;;;;;7.37;85.90;99748.47;5059677;28;20110;-71
2022/02/03 07:41:27;;;;;;;20.25;12.65;;;;;;;7.32;85.59;99751.25;5050794;28;20037;-71
2022/02/03 07:43:52;;;;;;;18.40;13.30;;;;;;;7.28;85.82;99747.03;5050195;28;20083;-73
2022/02/03 07:46:17;;;;;;;18.70;14.75;;;;;;;7.26;86.07;99742.75;5049685;28;20119;-71
2022/02/03 07:48:43;;;;;;;20.35;13.73;;;;;;;7.28;86.00;99739.16;5050254;28;20033;-73
2022/02/03 07:51:08;;;;;;;19.60;14.43;;;;;;;7.25;84.98;99734.03;5050256;28;20116;-71
2022/02/03 07:53:34;;;;;;;20.00;14.20;;;;;;;7.23;85.38;99741.09;5050464;28;20079;-71
2022/02/03 07:55:59;;;;;;;18.50;13.43;;;;;;;7.23;85.36;99740.25;5049651;28;20395;-71
2022/02/03 07:58:24;;;;;;;18.65;13.77;;;;;;;7.20;85.12;99720.25;5050251;28;20025;-71
2022/02/03 08:00:50;;;;;;;18.73;13.85;;;;;;;7.18;84.42;99721.22;5050265;28;20028;-72
2022/02/03 08:03:15;;;;;;;19.77;13.77;;;;;;;7.13;84.71;99731.00;5049819;28;20052;-70
2022/02/03 08:05:45;;;;;;;23.08;16.70;;;;;;;7.10;84.83;99714.47;5049358;28;20436;-71
2022/02/03 08:08:18;;;;;;;16.90;13.45;;;;;;;7.10;84.97;99717.09;5049838;28;20059;-72
2022/02/03 08:10:49;;;;;;;16.77;13.65;;;;;;;7.08;84.29;99716.28;5050267;28;20040;-72
2022/02/03 08:13:22;;;;;;;19.48;13.63;;;;;;;7.11;84.40;99717.94;5049841;28;20029;-71
2022/02/03 08:15:50;;;;;;;21.63;15.07;;;;;;;7.14;84.35;99711.72;5049625;28;20041;-72
2022/02/03 08:18:19;;;;;;;17.42;13.88;;;;;;;7.17;83.90;99715.13;5049444;28;20486;-71
2022/02/03 08:20:58;;;;;;;19.00;13.65;;;;;;;7.16;83.56;99707.28;5047290;28;20131;-71
2022/02/03 08:23:43;;;;;;;19.25;13.75;;;;;;;7.21;83.51;99707.97;5049526;28;20033;-71
2022/02/03 08:31:40;;;;;;;15.30;11.48;;;;;;;7.22;82.79;99693.97;5049590;28;20546;-72
2022/02/03 08:34:05;;;;;;;16.77;11.80;;;;;;;7.17;82.49;99691.53;5049091;28;20056;-73
2022/02/03 08:36:35;;;;;;;13.43;11.05;;;;;;;7.22;82.94;99691.34;5048896;28;20536;-72
2022/02/03 08:39:06;;;;;;;13.70;10.45;;;;;;;7.17;82.19;99680.19;5050135;28;20416;-72
2022/02/03 08:41:31;;;;;;;13.95;10.50;;;;;;;7.17;82.39;99681.03;5049634;28;20037;-72
2022/02/03 08:43:56;;;;;;;14.60;10.18;;;;;;;7.18;82.18;99677.50;5049436;28;20033;-72
2022/02/03 08:46:25;;;;;;;13.23;10.85;;;;;;;7.20;81.59;99669.56;5047030;28;20698;-72
2022/02/03 08:48:51;;;;;;;14.20;9.60;;;;;;;7.20;81.27;99680.91;5047058;28;20037;-71
2022/02/03 08:51:16;;;;;;;14.05;10.15;;;;;;;7.17;81.23;99680.19;5035432;28;20410;-71
2022/02/03 08:53:49;;;;;;;12.90;8.93;;;;;;;7.21;81.26;99684.38;5048391;28;20025;-72
2022/02/03 09:58:16;;;;;;;5.68;4.88;;;;;;;7.05;77.48;99648.25;5046076;28;20460;-72
2022/02/03 10:03:31;;;;;;;8.65;5.32;;;;;;;7.10;76.95;99629.75;5044052;28;20120;-70
2022/02/03 10:06:06;;;;;;;7.22;5.80;;;;;;;7.10;76.91;99632.38;5047093;28;20021;-70
2022/02/03 10:08:33;;;;;;;7.05;4.72;;;;;;;7.10;76.79;99640.22;5047384;28;20520;-71
2022/02/03 10:11:11;;;;;;;9.50;5.63;;;;;;;7.12;76.84;99643.66;5047333;28;20037;-70
2022/02/03 10:13:44;;;;;;;5.40;3.90;;;;;;;7.12;76.15;99648.91;5048179;28;20064;-70
2022/02/03 10:16:10;;;;;;;9.63;6.55;;;;;;;7.14;75.99;99640.94;5046833;28;20414;-70
2022/02/03 10:18:36;;;;;;;8.75;6.07;;;;;;;7.15;76.30;99642.69;5044680;28;20025;-70
2022/02/03 10:21:01;;;;;;;6.88;4.35;;;;;;;7.15;75.42;99645.31;5047325;28;20652;-70
2022/02/03 10:23:29;;;;;;;6.53;4.43;;;;;;;7.12;75.94;99637.56;5047467;28;20528;-71
2022/02/03 10:26:06;;;;;;;5.47;4.35;;;;;;;7.10;76.21;99638.44;5047031;28;20053;-71
2022/02/03 10:28:33;;;;;;;6.20;4.15;;;;;;;7.10;75.32;99645.47;5051040;28;20041;-71
2022/02/03 10:31:04;;;;;;;5.63;4.28;;;;;;;7.07;75.90;99641.19;5049648;28;20040;-71
2022/02/03 10:33:32;;;;;;;5.78;4.05;;;;;;;7.00;75.48;99649.34;5048412;28;20041;-72
2022/02/03 10:36:03;;;;;;;9.45;5.45;;;;;;;7.03;75.67;99650.06;5046530;28;20495;-71
2022/02/03 10:38:56;;;;;;;6.63;4.15;;;;;;;7.03;75.83;99647.44;5047896;28;20490;-71
2022/02/03 10:43:56;;;;;;;8.25;4.85;;;;;;;6.99;76.11;99632.78;5051910;28;20104;-72
2022/02/03 11:07:28;;;;;;;5.15;3.60;;;;;;;6.96;75.15;99600.56;5064375;28;20040;-72
2022/02/03 11:10:02;;;;;;;5.82;3.50;;;;;;;6.96;74.77;99584.84;5062151;28;20065;-71
2022/02/03 11:12:30;;;;;;;6.35;4.10;;;;;;;7.00;74.93;99586.44;5047002;28;20033;-72
2022/02/03 11:14:57;;;;;;;4.18;3.13;;;;;;;7.02;74.96;99606.44;5046465;28;20968;-71
2022/02/03 11:17:25;;;;;;;5.13;3.88;;;;;;;7.09;74.96;99588.72;5046654;28;20033;-72
2022/02/03 11:19:53;;;;;;;5.95;4.15;;;;;;;7.07;74.83;99593.16;5047446;28;20032;-72
2022/02/03 11:22:27;;;;;;;5.90;4.95;;;;;;;7.07;75.01;99599.25;5045183;28;20049;-71
2022/02/03 11:25:15;;;;;;;5.53;3.80;;;;;;;7.01;75.00;99586.38;5046059;28;20133;-71
2022/02/03 11:52:11;;;;;;;7.80;4.57;;;;;;;6.97;73.49;99566.44;5050240;28;20046;-71
2022/02/03 11:55:13;;;;;;;6.63;3.60;;;;;;;6.93;73.82;99574.47;5049325;28;20041;-71
2022/02/03 11:58:02;;;;;;;7.22;4.65;;;;;;;6.87;74.35;99578.19;5049103;28;20051;-72
2022/02/03 12:03:06;;;;;;;6.75;4.85;;;;;;;6.73;74.49;99559.50;5049749;28;20025;-70
2022/02/03 12:16:30;;;;;;;6.65;4.40;;;;;;;6.70;74.66;99552.63;5061765;28;20040;-70
2022/02/03 12:27:07;;;;;;;;;;;;;;;6.61;74.84;99540.69;5051722;28;20036;-72
2022/02/03 12:29:45;;;;;;;6.72;4.72;;;;;;;6.58;75.13;99542.59;5051425;28;19924;-71
2022/02/03 12:45:01;;;;;;;6.82;5.05;;;;;;;6.63;75.37;99530.19;5068731;28;20035;-71
2022/02/03 12:47:27;;;;;;;8.85;5.28;;;;;;;6.63;74.80;99525.78;5068859;28;20037;-71
2022/02/03 12:49:53;;;;;;;6.72;4.47;;;;;;;6.68;75.00;99524.78;5055122;28;20035;-71
2022/02/03 12:52:28;;;;;;;9.00;5.53;;;;;;;6.69;75.47;99524.69;5048535;28;20040;-71
2022/02/03 12:54:55;;;;;;;7.90;5.63;;;;;;;6.70;75.23;99520.34;5048648;28;20033;-71
2022/02/03 12:57:31;;;;;;;7.30;5.22;;;;;;;6.69;75.08;99516.84;5048797;28;20037;-71
2022/02/03 13:00:20;;;;;;;6.55;4.78;;;;;;;6.69;74.79;99516.84;5049327;28;20033;-71
2022/02/03 13:02:58;;;;;;;7.60;5.07;;;;;;;6.69;74.86;99508.97;5049033;28;20033;-71
2022/02/03 13:05:26;;;;;;;6.97;5.07;;;;;;;6.65;75.05;99507.41;5050290;28;20027;-71
2022/02/03 13:07:57;;;;;;;6.80;5.25;;;;;;;6.68;75.19;99495.97;5048603;28;20490;-71
2022/02/03 13:10:30;;;;;;;8.52;5.13;;;;;;;6.69;74.66;99495.03;5048155;28;20041;-71
2022/02/03 13:13:16;;;;;;;7.60;4.70;;;;;;;6.71;75.32;99477.50;5048188;28;20029;-70
2022/02/03 13:15:43;;;;;;;10.43;4.55;;;;;;;6.70;74.69;99473.19;5048340;28;20049;-71
2022/02/03 13:18:16;;;;;;;15.23;5.63;;;;;;;6.71;74.37;99480.97;5047204;28;20041;-71
2022/02/03 13:20:47;;;;;;;10.75;5.10;;;;;;;6.74;74.15;99482.63;5048607;28;20095;-71
2022/02/03 13:23:17;;;;;;;8.80;4.72;;;;;;;6.75;73.83;99487.81;5030530;28;20129;-70
2022/02/03 13:31:03;;;;;;;7.25;4.45;;;;;;;6.70;73.11;99479.28;5047901;28;20040;-71
2022/02/03 13:33:36;;;;;;;7.80;4.82;;;;;;;6.64;73.13;99485.56;5048232;28;20041;-72
2022/02/03 13:36:17;;;;;;;11.57;6.25;;;;;;;6.65;73.21;99474.22;5047412;28;20064;-71
2022/02/03 13:38:55;;;;;;;15.60;5.88;;;;;;;6.62;73.03;99462.97;5048556;28;20025;-70
2022/02/03 13:41:25;;;;;;;7.50;4.95;;;;;;;6.52;72.86;99459.00;5047999;28;20506;-71
2022/02/03 13:43:51;;;;;;;8.00;5.45;;;;;;;6.56;72.77;99464.06;5046146;28;20033;-71
2022/02/03 13:46:31;;;;;;;8.77;4.30;;;;;;;6.59;72.89;99453.47;5047419;28;20086;-71
2022/02/03 13:48:57;;;;;;;7.63;5.47;;;;;;;6.61;72.67;99459.50;5046646;28;20402;-71
2022/02/03 13:51:28;;;;;;;8.23;5.05;;;;;;;6.58;72.58;99453.56;5047667;28;20029;-72
2022/02/03 14:16:18;;;;;;;17.15;6.15;;;;;;;6.92;71.29;99428.66;5049047;28;20083;-71
2022/02/03 14:21:34;;;;;;;5.70;4.60;;;;;;;6.86;72.10;99424.50;5046729;28;20499;-72
2022/02/03 14:26:59;;;;;;;10.15;6.28;;;;;;;6.79;72.09;99430.88;5046631;28;20114;-72
2022/02/03 14:29:27;;;;;;;8.82;6.22;;;;;;;6.72;72.30;99411.09;5067293;28;20036;-72
2022/02/03 14:31:59;;;;;;;11.13;6.25;;;;;;;6.69;72.44;99408.59;5067158;28;20078;-71
2022/02/03 14:34:31;;;;;;;8.80;5.07;;;;;;;6.72;72.26;99408.47;5067423;28;20575;-72
2022/02/03 14:37:13;;;;;;;12.63;7.38;;;;;;;6.74;72.80;99402.25;5067216;28;20478;-72
2022/02/03 14:42:07;;;;;;;13.00;6.78;;;;;;;6.72;72.84;99395.38;5047462;28;20037;-71
2022/02/03 14:44:33;;;;;;;7.82;5.70;;;;;;;6.72;72.84;99398.00;5046774;28;20486;-71
2022/02/03 14:46:58;;;;;;;14.38;6.78;;;;;;;6.72;72.95;99390.13;5046416;28;20044;-71
2022/02/03 14:49:23;;;;;;;10.85;6.47;;;;;;;6.65;73.07;99382.53;5060653;28;20044;-71
2022/02/03 14:52:11;;;;;;;9.32;6.60;;;;;;;6.68;72.75;99392.03;5066899;28;20040;-71
2022/02/03 14:59:44;;;;;;;16.33;7.55;;;;;;;6.66;73.47;99391.22;5047772;28;20190;-71
2022/02/03 15:02:09;;;;;;;10.43;6.68;;;;;;;6.71;73.25;99384.03;5050844;28;20128;-71
2022/02/03 15:04:37;;;;;;;8.32;6.47;;;;;;;6.72;73.17;99392.75;5050827;28;21885;-71
2022/02/03 15:07:05;;;;;;;12.73;7.13;;;;;;;6.72;73.06;99392.75;5055116;28;20029;-71
2022/02/03 15:10:03;;;;;;;17.00;6.35;;;;;;;6.75;73.18;99390.03;5060834;28;20041;-72
2022/02/03 15:14:49;;;;;;;30.38;18.88;;;;;;;6.76;73.17;99386.47;5050233;28;20405;-71
2022/02/03 15:17:15;;;;;;;10.88;7.43;;;;;;;6.75;72.83;99377.78;5039510;28;20033;-71
2022/02/03 15:19:40;;;;;;;12.65;7.03;;;;;;;6.74;72.93;99375.22;5043442;28;20600;-72
2022/02/03 15:22:06;;;;;;;9.05;6.55;;;;;;;6.74;73.32;99380.44;5027566;28;20071;-70
2022/02/03 15:24:31;;;;;;;13.38;7.68;;;;;;;6.67;72.81;99372.00;5046155;28;20328;-71
2022/02/03 15:26:59;;;;;;;13.45;7.32;;;;;;;6.62;73.70;99376.53;5045282;28;20084;-71
2022/02/03 15:29:26;;;;;;;14.38;7.03;;;;;;;6.67;73.52;99379.84;5045561;28;20051;-69
2022/02/03 15:31:51;;;;;;;14.18;8.50;;;;;;;6.63;73.55;99373.03;5045432;28;20068;-69
2022/02/03 15:34:20;;;;;;;12.15;7.82;;;;;;;6.59;73.57;99371.44;5045793;28;20446;-70
2022/02/03 15:36:49;;;;;;;10.90;7.90;;;;;;;6.57;73.98;99374.13;5047938;28;20128;-70
2022/02/03 15:39:20;;;;;;;15.65;9.02;;;;;;;6.56;73.91;99375.03;5045230;28;20528;-71
2022/02/03 15:41:48;;;;;;;11.05;7.97;;;;;;;6.57;74.14;99368.00;5046007;28;20033;-71
2022/02/03 15:44:13;;;;;;;14.05;7.55;;;;;;;6.56;74.02;99369.78;5045481;28;20108;-69
2022/02/03 15:46:57;;;;;;;14.93;8.38;;;;;;;6.53;74.21;99356.81;5044948;28;20125;-70
2022/02/03 16:02:48;;;;;;;15.15;8.32;;;;;;;6.51;74.42;99342.94;5041241;28;20114;-71
2022/02/03 16:13:46;;;;;;;16.92;9.18;;;;;;;6.43;75.92;99332.78;5044028;28;20585;-71
2022/02/03 16:18:50;;;;;;;16.90;9.07;;;;;;;6.38;76.61;99333.88;5076314;28;20450;-71
2022/02/03 16:54:07;;;;;;;11.25;8.98;;;;;;;6.09;78.87;99338.47;5058012;28;20043;-68
2022/02/03 16:56:32;;;;;;;16.23;9.77;;;;;;;6.16;78.54;99334.69;5055742;28;20036;-68
2022/02/03 16:58:58;;;;;;;24.08;15.00;;;;;;;6.19;78.65;99337.19;5057585;28;20874;-67
2022/02/03 17:01:26;;;;;;;16.42;10.90;;;;;;;6.20;78.37;99340.66;5057343;28;20036;-67
2022/02/03 17:03:52;;;;;;;16.30;11.13;;;;;;;6.21;78.42;99340.59;5040505;28;20040;-68
2022/02/03 17:06:17;;;;;;;23.05;11.90;;;;;;;6.23;78.04;99348.41;5055316;28;20086;-67
2022/02/03 17:08:42;;;;;;;14.45;9.80;;;;;;;6.19;77.84;99342.41;5058103;28;20044;-69
2022/02/03 17:11:08;;;;;;;16.67;12.77;;;;;;;6.21;78.19;99352.84;5058030;28;20504;-68
2022/02/03 17:13:33;;;;;;;13.85;10.77;;;;;;;6.23;78.64;99341.41;5058630;28;20029;-69
2022/02/03 17:15:58;;;;;;;14.50;10.13;;;;;;;6.23;77.83;99354.50;5057671;28;20660;-71
2022/02/03 17:18:24;;;;;;;22.83;13.15;;;;;;;6.22;77.98;99349.31;5058262;28;20032;-69
2022/02/03 17:20:49;;;;;;;18.42;11.50;;;;;;;6.20;77.74;99345.88;5049517;28;20037;-68
2022/02/03 17:23:18;;;;;;;13.68;10.32;;;;;;;6.16;78.28;99353.03;5058476;28;20718;-68
2022/02/03 17:26:02;;;;;;;15.40;10.38;;;;;;;6.16;77.74;99353.03;5058930;28;20032;-69
2022/02/03 17:28:38;;;;;;;18.55;12.68;;;;;;;6.17;77.79;99353.88;5057933;28;20078;-68
2022/02/03 17:31:15;;;;;;;19.60;11.60;;;;;;;6.13;78.00;99344.41;5059470;28;20123;-68
2022/02/03 18:08:39;;;;;;;15.52;11.02;;;;;;;6.22;77.83;99336.22;5058431;28;20749;-68
2022/02/03 18:50:35;;;;;;;20.83;13.23;;;;;;;6.24;79.03;99360.56;5056486;28;20182;-69
2022/02/03 18:58:15;;;;;;;18.73;14.02;;;;;;;6.11;79.98;99343.66;5058074;28;20036;-68
2022/02/03 19:14:36;;;;;;;18.08;13.38;;;;;;;6.12;80.18;99327.88;5046439;28;20033;-69
2022/02/03 19:28:46;;;;;;;16.30;13.55;;;;;;;6.03;80.44;99323.00;5064829;28;20057;-68
2022/02/03 20:05:56;;;;;;;19.60;15.10;;;;;;;6.10;80.87;99341.91;5067975;28;20035;-69
2022/02/03 20:08:32;;;;;;;;;;;;;;;6.05;81.19;99336.84;5068279;28;20036;-69
2022/02/03 20:10:58;;;;;;;22.58;16.58;;;;;;;6.04;81.80;99343.00;5066290;28;20266;-69
2022/02/03 20:13:23;;;;;;;19.30;14.50;;;;;;;6.08;81.74;99349.84;5068355;28;20560;-70
2022/02/03 20:15:49;;;;;;;28.67;16.45;;;;;;;6.02;82.52;99347.44;5068695;28;20129;-70
2022/02/03 20:18:17;;;;;;;22.55;16.65;;;;;;;5.94;82.90;99342.50;5067288;28;20401;-68
2022/02/03 20:20:43;;;;;;;24.65;15.38;;;;;;;5.89;83.22;99349.66;5067426;28;20040;-68
2022/02/03 20:23:13;;;;;;;24.23;16.13;;;;;;;5.90;84.02;99345.25;5067929;28;20079;-69
2022/02/03 20:25:52;;;;;;;21.67;16.38;;;;;;;5.80;83.94;99340.34;5067636;28;20036;-68
2022/02/03 20:28:18;;;;;;;26.27;16.58;;;;;;;5.80;84.45;99347.34;5066730;28;20024;-69
2022/02/03 20:30:43;;;;;;;22.83;17.23;;;;;;;5.80;84.53;99348.19;5067492;28;20113;-67
2022/02/03 20:33:09;;;;;;;20.73;17.60;;;;;;;5.76;84.78;99359.72;5067529;28;20113;-69
2022/02/03 20:35:35;;;;;;;22.27;16.45;;;;;;;5.69;85.39;99355.59;5067335;28;20330;-69
2022/02/03 20:38:02;;;;;;;21.38;17.33;;;;;;;5.70;85.24;99359.06;5067955;28;20040;-69
2022/02/03 20:40:27;;;;;;;28.10;18.33;;;;;;;5.70;85.36;99349.47;5067228;28;20042;-68
2022/02/03 20:42:53;;;;;;;22.83;16.77;;;;;;;5.72;85.38;99352.88;5066143;28;20519;-70
2022/02/03 20:45:18;;;;;;;23.73;16.35;;;;;;;5.72;85.56;99349.41;5067622;28;20086;-70
2022/02/03 20:47:44;;;;;;;24.25;18.88;;;;;;;5.71;85.53;99345.94;5031706;28;20270;-68
2022/02/03 20:50:17;;;;;;;23.15;15.23;;;;;;;5.68;85.38;99351.28;5039863;28;20609;-70
2022/02/03 20:52:42;;;;;;;24.88;17.52;;;;;;;5.68;85.32;99348.66;5040504;28;20607;-70
2022/02/03 20:55:08;;;;;;;24.05;17.02;;;;;;;5.69;85.20;99346.91;5041094;28;20044;-69
2022/02/03 20:57:33;;;;;;;21.92;15.98;;;;;;;5.67;85.54;99349.56;5039685;28;20043;-69
2022/02/03 21:02:36;;;;;;;23.08;16.98;;;;;;;5.76;84.87;99348.41;5040046;28;20049;-69
2022/02/03 21:05:23;;;;;;;25.67;17.10;;;;;;;5.78;84.62;99339.59;5046587;28;20044;-68
2022/02/03 21:07:49;;;;;;;20.98;16.55;;;;;;;5.80;84.80;99339.50;5048342;28;20051;-70
2022/02/03 21:10:21;;;;;;;23.00;16.73;;;;;;;5.82;84.36;99337.69;5043040;28;20068;-69
2022/02/03 21:12:47;;;;;;;22.17;17.13;;;;;;;5.84;84.22;99335.88;5047262;28;20033;-69
2022/02/03 21:15:21;;;;;;;21.15;15.35;;;;;;;5.84;84.08;99337.66;5049293;28;20098;-69
2022/02/03 21:17:48;;;;;;;25.98;16.50;;;;;;;5.86;83.94;99334.06;5046400;28;20072;-70
2022/02/03 21:20:18;;;;;;;22.48;16.70;;;;;;;5.83;83.79;99334.16;5039667;28;20435;-69
2022/02/03 21:22:44;;;;;;;22.67;16.52;;;;;;;5.86;83.94;99333.19;5033880;28;20850;-70
2022/02/03 21:25:23;;;;;;;20.25;14.27;;;;;;;5.90;83.89;99332.19;5039699;28;20041;-70
2022/02/03 21:27:54;;;;;;;19.63;15.63;;;;;;;5.94;84.27;99321.56;5039209;28;20029;-70
2022/02/03 21:30:21;;;;;;;20.83;15.18;;;;;;;5.96;83.81;99324.16;5059149;28;20037;-69
2022/02/03 21:32:48;;;;;;;21.23;15.48;;;;;;;5.95;84.12;99330.28;5058582;28;20404;-69
2022/02/03 21:35:16;;;;;;;23.15;15.95;;;;;;;5.96;83.89;99327.59;5059457;28;20147;-69
2022/02/03 21:37:43;;;;;;;16.58;13.93;;;;;;;5.97;84.18;99331.91;5053120;28;20119;-68
2022/02/03 21:40:10;;;;;;;23.65;15.52;;;;;;;5.97;84.32;99331.06;5058004;28;20792;-69
2022/02/03 21:42:36;;;;;;;18.73;14.50;;;;;;;5.94;84.25;99339.03;5057012;28;20078;-69
2022/02/03 21:45:04;;;;;;;20.08;14.98;;;;;;;5.93;84.27;99332.94;5058777;28;20037;-69
2022/02/03 21:47:30;;;;;;;20.70;14.75;;;;;;;5.88;84.51;99334.00;5058105;28;20726;-68
2022/02/03 21:49:58;;;;;;;20.50;14.52;;;;;;;5.91;84.27;99333.91;5058218;28;20037;-69
2022/02/03 21:52:32;;;;;;;21.83;14.80;;;;;;;5.93;84.51;99334.66;5055330;28;20085;-68
2022/02/03 21:54:59;;;;;;;18.67;12.90;;;;;;;5.90;84.26;99327.78;5057804;28;20806;-68
2022/02/03 21:57:25;;;;;;;17.77;13.13;;;;;;;5.90;84.22;99333.03;5057701;28;20045;-68
2022/02/03 21:59:52;;;;;;;19.02;13.77;;;;;;;5.91;84.30;99337.38;5058433;28;20094;-68
2022/02/03 22:02:17;;;;;;;18.33;14.55;;;;;;;5.92;83.91;99335.59;5058919;28;20097;-68
2022/02/03 22:04:43;;;;;;;18.77;12.77;;;;;;;5.95;83.90;99332.88;5058837;28;20032;-69
2022/02/03 22:07:08;;;;;;;18.23;14.60;;;;;;;5.92;83.76;99328.59;5058354;28;20036;-68
2022/02/03 22:09:35;;;;;;;20.60;14.20;;;;;;;5.92;84.34;99328.59;5058257;28;20524;-68
2022/02/03 22:12:01;;;;;;;20.98;13.65;;;;;;;5.94;84.58;99325.97;5056988;28;20049;-69
2022/02/03 22:14:26;;;;;;;16.08;13.30;;;;;;;5.93;84.64;99319.84;5058821;28;20091;-69
2022/02/03 22:16:53;;;;;;;19.67;13.88;;;;;;;5.91;84.69;99321.66;5058233;28;20032;-70
2022/02/03 22:19:19;;;;;;;18.55;13.02;;;;;;;5.86;84.59;99321.00;5057686;28;20044;-69
2022/02/03 22:22:04;;;;;;;18.92;13.88;;;;;;;5.90;84.78;99321.72;5058937;28;22290;-70
2022/02/03 22:43:01;;;;;;;16.85;13.40;;;;;;;5.94;84.48;99316.34;5061569;28;20744;-70
2022/02/03 22:46:14;;;;;;;27.10;18.70;;;;;;;5.94;84.59;99311.09;5063763;28;20043;-69
2022/02/03 22:49:30;;;;;;;13.48;11.50;;;;;;;5.93;84.39;99312.00;5072312;28;20038;-69
2022/02/03 22:52:45;;;;;;;16.05;12.30;;;;;;;5.91;84.25;99320.81;5063308;28;20049;-68
2022/02/03 22:56:00;;;;;;;15.60;12.15;;;;;;;5.97;84.21;99312.75;5076193;28;20127;-68
2022/02/03 23:02:31;;;;;;;16.63;13.00;;;;;;;5.98;83.96;99311.84;5076903;28;20044;-69
2022/02/03 23:05:47;;;;;;;15.07;11.43;;;;;;;6.01;84.02;99311.75;5074496;28;20040;-68
2022/02/03 23:13:07;;;;;;;18.10;11.70;;;;;;;6.00;83.61;99310.88;5046107;28;20135;-68
2022/02/03 23:20:03;;;;;;;15.48;11.70;;;;;;;6.00;83.25;99312.63;5077584;28;20512;-70